sensor_id;sensor_type;location;lat;lon;timestamp;P1;durP1;ratioP1;P2;durP2;ratioP2
33413;SDS011;60055;41.884;12.534;2023-02-15T00:01:40;57.08;;;31.27;;
33413;SDS011;60055;41.884;12.534;2023-02-15T00:04:06;56.45;;;32.67;;
33413;SDS011;60055;41.884;12.534;2023-02-15T00:06:33;54.55;;;31.70;;
33413;SDS011;60055;41.884;12.534;2023-02-15T00:09:00;53.67;;;31.33;;
33413;SDS011;60055;41.884;12.534;2023-02-15T00:11:26;54.67;;;31.65;;
33413;SDS011;60055;41.884;12.534;2023-02-15T00:14:16;60.17;;;34.60;;
33413;SDS011;60055;41.884;12.534;2023-02-15T00:16:46;60.35;;;33.67;;
33413;SDS011;60055;41.884;12.534;2023-02-15T00:19:15;59.30;;;33.10;;
33413;SDS011;60055;41.884;12.534;2023-02-15T00:21:42;60.58;;;33.15;;
33413;SDS011;60055;41.884;12.534;2023-02-15T00:24:09;60.88;;;34.42;;
33413;SDS011;60055;41.884;12.534;2023-02-15T00:26:37;58.03;;;34.17;;
33413;SDS011;60055;41.884;12.534;2023-02-15T00:29:04;57.25;;;32.50;;
33413;SDS011;60055;41.884;12.534;2023-02-15T00:31:31;57.72;;;31.38;;
33413;SDS011;60055;41.884;12.534;2023-02-15T00:34:16;58.35;;;33.42;;
33413;SDS011;60055;41.884;12.534;2023-02-15T00:36:46;55.83;;;31.45;;
33413;SDS011;60055;41.884;12.534;2023-02-15T00:39:12;56.63;;;30.80;;
33413;SDS011;60055;41.884;12.534;2023-02-15T00:41:39;56.17;;;29.67;;
33413;SDS011;60055;41.884;12.534;2023-02-15T00:44:05;54.40;;;30.58;;
33413;SDS011;60055;41.884;12.534;2023-02-15T00:46:31;53.78;;;29.27;;
33413;SDS011;60055;41.884;12.534;2023-02-15T00:48:57;55.90;;;30.30;;
33413;SDS011;60055;41.884;12.534;2023-02-15T00:51:23;53.60;;;31.48;;
33413;SDS011;60055;41.884;12.534;2023-02-15T00:53:49;56.60;;;29.95;;
33413;SDS011;60055;41.884;12.534;2023-02-15T00:56:15;57.35;;;30.92;;
33413;SDS011;60055;41.884;12.534;2023-02-15T00:58:41;55.30;;;30.27;;
33413;SDS011;60055;41.884;12.534;2023-02-15T01:01:08;57.78;;;30.92;;
33413;SDS011;60055;41.884;12.534;2023-02-15T01:03:38;54.95;;;31.20;;
33413;SDS011;60055;41.884;12.534;2023-02-15T01:06:06;62.70;;;31.15;;
33413;SDS011;60055;41.884;12.534;2023-02-15T01:08:32;55.35;;;30.83;;
33413;SDS011;60055;41.884;12.534;2023-02-15T01:11:02;57.33;;;31.00;;
33413;SDS011;60055;41.884;12.534;2023-02-15T01:15:58;52.47;;;30.88;;
33413;SDS011;60055;41.884;12.534;2023-02-15T01:18:23;55.38;;;30.73;;
33413;SDS011;60055;41.884;12.534;2023-02-15T01:20:52;60.60;;;30.20;;
33413;SDS011;60055;41.884;12.534;2023-02-15T01:23:21;52.78;;;29.85;;
33413;SDS011;60055;41.884;12.534;2023-02-15T01:25:47;59.33;;;30.40;;
33413;SDS011;60055;41.884;12.534;2023-02-15T01:28:13;53.88;;;29.90;;
33413;SDS011;60055;41.884;12.534;2023-02-15T01:30:39;50.90;;;30.35;;
33413;SDS011;60055;41.884;12.534;2023-02-15T01:33:05;54.10;;;29.75;;
33413;SDS011;60055;41.884;12.534;2023-02-15T01:35:31;45.42;;;29.25;;
33413;SDS011;60055;41.884;12.534;2023-02-15T01:37:57;54.92;;;29.58;;
33413;SDS011;60055;41.884;12.534;2023-02-15T01:40:23;52.97;;;29.38;;
33413;SDS011;60055;41.884;12.534;2023-02-15T01:42:52;52.40;;;30.00;;
33413;SDS011;60055;41.884;12.534;2023-02-15T01:45:21;57.70;;;28.63;;
33413;SDS011;60055;41.884;12.534;2023-02-15T01:50:46;48.00;;;28.35;;
33413;SDS011;60055;41.884;12.534;2023-02-15T01:53:24;49.50;;;28.45;;
33413;SDS011;60055;41.884;12.534;2023-02-15T01:55:57;54.28;;;31.05;;
33413;SDS011;60055;41.884;12.534;2023-02-15T01:58:26;48.83;;;28.20;;
33413;SDS011;60055;41.884;12.534;2023-02-15T02:00:54;54.38;;;28.42;;
33413;SDS011;60055;41.884;12.534;2023-02-15T02:03:26;47.20;;;27.45;;
33413;SDS011;60055;41.884;12.534;2023-02-15T02:06:08;50.50;;;28.67;;
33413;SDS011;60055;41.884;12.534;2023-02-15T02:08:34;50.03;;;28.85;;
33413;SDS011;60055;41.884;12.534;2023-02-15T02:11:00;50.53;;;28.58;;
33413;SDS011;60055;41.884;12.534;2023-02-15T02:13:26;47.55;;;29.05;;
33413;SDS011;60055;41.884;12.534;2023-02-15T02:15:54;47.53;;;28.55;;
33413;SDS011;60055;41.884;12.534;2023-02-15T02:21:34;48.65;;;28.63;;
33413;SDS011;60055;41.884;12.534;2023-02-15T02:24:23;43.90;;;26.35;;
33413;SDS011;60055;41.884;12.534;2023-02-15T02:30:04;56.35;;;26.95;;
33413;SDS011;60055;41.884;12.534;2023-02-15T02:35:59;42.92;;;25.38;;
33413;SDS011;60055;41.884;12.534;2023-02-15T02:38:47;45.45;;;27.17;;
33413;SDS011;60055;41.884;12.534;2023-02-15T02:41:38;46.85;;;26.15;;
33413;SDS011;60055;41.884;12.534;2023-02-15T02:49:40;45.30;;;25.30;;
33413;SDS011;60055;41.884;12.534;2023-02-15T02:54:59;44.55;;;25.42;;
33413;SDS011;60055;41.884;12.534;2023-02-15T02:57:27;43.50;;;25.88;;
33413;SDS011;60055;41.884;12.534;2023-02-15T02:59:53;44.97;;;26.65;;
33413;SDS011;60055;41.884;12.534;2023-02-15T03:02:24;44.20;;;24.83;;
33413;SDS011;60055;41.884;12.534;2023-02-15T03:04:55;46.58;;;26.65;;
33413;SDS011;60055;41.884;12.534;2023-02-15T03:07:28;44.13;;;26.75;;
33413;SDS011;60055;41.884;12.534;2023-02-15T03:09:57;42.30;;;26.85;;
33413;SDS011;60055;41.884;12.534;2023-02-15T03:12:28;45.10;;;26.42;;
33413;SDS011;60055;41.884;12.534;2023-02-15T03:15:19;41.92;;;25.98;;
33413;SDS011;60055;41.884;12.534;2023-02-15T03:17:47;48.35;;;26.90;;
33413;SDS011;60055;41.884;12.534;2023-02-15T03:20:23;40.00;;;26.17;;
33413;SDS011;60055;41.884;12.534;2023-02-15T03:23:03;44.33;;;26.08;;
33413;SDS011;60055;41.884;12.534;2023-02-15T03:25:36;41.95;;;25.63;;
33413;SDS011;60055;41.884;12.534;2023-02-15T03:30:33;42.28;;;25.10;;
33413;SDS011;60055;41.884;12.534;2023-02-15T03:33:00;42.08;;;25.85;;
33413;SDS011;60055;41.884;12.534;2023-02-15T03:35:32;43.83;;;26.45;;
33413;SDS011;60055;41.884;12.534;2023-02-15T03:38:04;45.42;;;27.65;;
33413;SDS011;60055;41.884;12.534;2023-02-15T03:40:39;48.13;;;26.58;;
33413;SDS011;60055;41.884;12.534;2023-02-15T03:43:32;39.58;;;25.02;;
33413;SDS011;60055;41.884;12.534;2023-02-15T03:48:52;43.35;;;26.90;;
33413;SDS011;60055;41.884;12.534;2023-02-15T03:51:22;45.33;;;26.10;;
33413;SDS011;60055;41.884;12.534;2023-02-15T03:54:04;43.58;;;25.73;;
33413;SDS011;60055;41.884;12.534;2023-02-15T03:56:36;43.03;;;25.67;;
33413;SDS011;60055;41.884;12.534;2023-02-15T03:59:03;46.70;;;26.30;;
33413;SDS011;60055;41.884;12.534;2023-02-15T04:01:52;43.22;;;26.23;;
33413;SDS011;60055;41.884;12.534;2023-02-15T04:04:45;44.78;;;26.15;;
33413;SDS011;60055;41.884;12.534;2023-02-15T04:07:12;45.30;;;27.33;;
33413;SDS011;60055;41.884;12.534;2023-02-15T04:09:38;47.05;;;26.08;;
33413;SDS011;60055;41.884;12.534;2023-02-15T04:12:23;41.05;;;25.92;;
33413;SDS011;60055;41.884;12.534;2023-02-15T04:14:48;41.95;;;27.17;;
33413;SDS011;60055;41.884;12.534;2023-02-15T04:17:33;42.47;;;27.85;;
33413;SDS011;60055;41.884;12.534;2023-02-15T04:20:00;46.15;;;27.58;;
33413;SDS011;60055;41.884;12.534;2023-02-15T04:22:44;42.38;;;26.33;;
33413;SDS011;60055;41.884;12.534;2023-02-15T04:25:29;50.00;;;28.10;;
33413;SDS011;60055;41.884;12.534;2023-02-15T04:27:54;44.83;;;27.10;;
33413;SDS011;60055;41.884;12.534;2023-02-15T04:30:21;50.05;;;27.15;;
33413;SDS011;60055;41.884;12.534;2023-02-15T04:32:48;42.85;;;27.42;;
33413;SDS011;60055;41.884;12.534;2023-02-15T04:35:15;50.47;;;27.88;;
33413;SDS011;60055;41.884;12.534;2023-02-15T04:37:41;42.75;;;25.73;;
33413;SDS011;60055;41.884;12.534;2023-02-15T04:40:07;45.33;;;25.92;;
33413;SDS011;60055;41.884;12.534;2023-02-15T04:42:35;43.47;;;27.30;;
33413;SDS011;60055;41.884;12.534;2023-02-15T04:45:00;42.42;;;25.40;;
33413;SDS011;60055;41.884;12.534;2023-02-15T04:47:26;43.50;;;25.23;;
33413;SDS011;60055;41.884;12.534;2023-02-15T04:49:52;46.78;;;25.95;;
33413;SDS011;60055;41.884;12.534;2023-02-15T04:52:17;38.90;;;24.08;;
33413;SDS011;60055;41.884;12.534;2023-02-15T04:54:43;43.50;;;25.52;;
33413;SDS011;60055;41.884;12.534;2023-02-15T04:57:09;42.72;;;25.20;;
33413;SDS011;60055;41.884;12.534;2023-02-15T04:59:35;46.17;;;26.10;;
33413;SDS011;60055;41.884;12.534;2023-02-15T05:02:01;43.50;;;25.73;;
33413;SDS011;60055;41.884;12.534;2023-02-15T05:04:26;43.75;;;25.58;;
33413;SDS011;60055;41.884;12.534;2023-02-15T05:06:52;41.45;;;24.63;;
33413;SDS011;60055;41.884;12.534;2023-02-15T05:09:18;42.45;;;26.60;;
33413;SDS011;60055;41.884;12.534;2023-02-15T05:11:46;39.92;;;24.98;;
33413;SDS011;60055;41.884;12.534;2023-02-15T05:14:14;43.35;;;24.33;;
33413;SDS011;60055;41.884;12.534;2023-02-15T05:16:39;43.53;;;25.73;;
33413;SDS011;60055;41.884;12.534;2023-02-15T05:19:05;42.40;;;26.60;;
33413;SDS011;60055;41.884;12.534;2023-02-15T05:21:31;42.55;;;26.10;;
33413;SDS011;60055;41.884;12.534;2023-02-15T05:23:57;42.60;;;25.77;;
33413;SDS011;60055;41.884;12.534;2023-02-15T05:26:23;40.60;;;25.05;;
33413;SDS011;60055;41.884;12.534;2023-02-15T05:29:08;39.60;;;23.95;;
33413;SDS011;60055;41.884;12.534;2023-02-15T05:31:34;44.05;;;26.08;;
33413;SDS011;60055;41.884;12.534;2023-02-15T05:34:01;41.78;;;26.58;;
33413;SDS011;60055;41.884;12.534;2023-02-15T05:36:27;45.95;;;26.35;;
33413;SDS011;60055;41.884;12.534;2023-02-15T05:38:53;45.40;;;26.83;;
33413;SDS011;60055;41.884;12.534;2023-02-15T05:41:19;44.38;;;26.58;;
33413;SDS011;60055;41.884;12.534;2023-02-15T05:43:45;43.45;;;25.85;;
33413;SDS011;60055;41.884;12.534;2023-02-15T05:46:11;49.60;;;26.25;;
33413;SDS011;60055;41.884;12.534;2023-02-15T05:48:38;44.33;;;27.20;;
33413;SDS011;60055;41.884;12.534;2023-02-15T05:51:07;44.63;;;25.65;;
33413;SDS011;60055;41.884;12.534;2023-02-15T05:53:34;44.42;;;26.58;;
33413;SDS011;60055;41.884;12.534;2023-02-15T05:56:02;43.28;;;26.83;;
33413;SDS011;60055;41.884;12.534;2023-02-15T05:58:32;49.25;;;29.90;;
33413;SDS011;60055;41.884;12.534;2023-02-15T06:01:12;46.65;;;27.48;;
33413;SDS011;60055;41.884;12.534;2023-02-15T06:03:42;43.20;;;26.50;;
33413;SDS011;60055;41.884;12.534;2023-02-15T06:06:09;43.00;;;27.55;;
33413;SDS011;60055;41.884;12.534;2023-02-15T06:08:35;44.10;;;28.08;;
33413;SDS011;60055;41.884;12.534;2023-02-15T06:11:02;48.53;;;26.50;;
33413;SDS011;60055;41.884;12.534;2023-02-15T06:13:29;51.78;;;27.95;;
33413;SDS011;60055;41.884;12.534;2023-02-15T06:15:55;44.83;;;27.27;;
33413;SDS011;60055;41.884;12.534;2023-02-15T06:18:20;45.55;;;27.92;;
33413;SDS011;60055;41.884;12.534;2023-02-15T06:20:46;47.78;;;27.42;;
33413;SDS011;60055;41.884;12.534;2023-02-15T06:23:13;44.72;;;27.85;;
33413;SDS011;60055;41.884;12.534;2023-02-15T06:25:38;49.40;;;27.25;;
33413;SDS011;60055;41.884;12.534;2023-02-15T06:28:04;45.45;;;27.13;;
33413;SDS011;60055;41.884;12.534;2023-02-15T06:30:30;47.78;;;26.33;;
33413;SDS011;60055;41.884;12.534;2023-02-15T06:32:56;47.85;;;27.33;;
33413;SDS011;60055;41.884;12.534;2023-02-15T06:35:22;48.72;;;27.48;;
33413;SDS011;60055;41.884;12.534;2023-02-15T06:37:50;46.20;;;26.92;;
33413;SDS011;60055;41.884;12.534;2023-02-15T06:40:17;47.15;;;27.98;;
33413;SDS011;60055;41.884;12.534;2023-02-15T06:42:43;51.88;;;28.50;;
33413;SDS011;60055;41.884;12.534;2023-02-15T06:45:09;47.67;;;28.38;;
33413;SDS011;60055;41.884;12.534;2023-02-15T06:47:35;49.00;;;28.50;;
33413;SDS011;60055;41.884;12.534;2023-02-15T06:50:01;53.17;;;29.02;;
33413;SDS011;60055;41.884;12.534;2023-02-15T06:52:29;47.17;;;28.00;;
33413;SDS011;60055;41.884;12.534;2023-02-15T06:54:55;50.83;;;28.10;;
33413;SDS011;60055;41.884;12.534;2023-02-15T06:57:20;44.13;;;26.95;;
33413;SDS011;60055;41.884;12.534;2023-02-15T06:59:46;48.97;;;28.63;;
33413;SDS011;60055;41.884;12.534;2023-02-15T07:02:12;47.95;;;28.58;;
33413;SDS011;60055;41.884;12.534;2023-02-15T07:04:38;50.55;;;26.55;;
33413;SDS011;60055;41.884;12.534;2023-02-15T07:07:04;43.88;;;27.55;;
33413;SDS011;60055;41.884;12.534;2023-02-15T07:09:34;43.58;;;27.02;;
33413;SDS011;60055;41.884;12.534;2023-02-15T07:11:59;47.17;;;27.25;;
33413;SDS011;60055;41.884;12.534;2023-02-15T07:14:43;49.47;;;26.92;;
33413;SDS011;60055;41.884;12.534;2023-02-15T07:17:14;45.33;;;28.20;;
33413;SDS011;60055;41.884;12.534;2023-02-15T07:19:39;46.28;;;27.40;;
33413;SDS011;60055;41.884;12.534;2023-02-15T07:22:05;51.28;;;27.60;;
33413;SDS011;60055;41.884;12.534;2023-02-15T07:24:31;48.17;;;27.38;;
33413;SDS011;60055;41.884;12.534;2023-02-15T07:26:56;50.90;;;27.92;;
33413;SDS011;60055;41.884;12.534;2023-02-15T07:29:25;46.80;;;28.05;;
33413;SDS011;60055;41.884;12.534;2023-02-15T07:31:50;52.45;;;27.85;;
33413;SDS011;60055;41.884;12.534;2023-02-15T07:34:16;49.95;;;27.00;;
33413;SDS011;60055;41.884;12.534;2023-02-15T07:36:42;56.25;;;26.77;;
33413;SDS011;60055;41.884;12.534;2023-02-15T07:39:10;47.92;;;26.63;;
33413;SDS011;60055;41.884;12.534;2023-02-15T07:41:36;47.35;;;27.17;;
33413;SDS011;60055;41.884;12.534;2023-02-15T07:44:02;43.10;;;26.15;;
33413;SDS011;60055;41.884;12.534;2023-02-15T07:46:27;42.92;;;26.15;;
33413;SDS011;60055;41.884;12.534;2023-02-15T07:48:53;50.35;;;27.15;;
33413;SDS011;60055;41.884;12.534;2023-02-15T07:51:19;50.08;;;26.20;;
33413;SDS011;60055;41.884;12.534;2023-02-15T07:53:45;54.10;;;26.05;;
33413;SDS011;60055;41.884;12.534;2023-02-15T07:56:12;45.33;;;25.48;;
33413;SDS011;60055;41.884;12.534;2023-02-15T07:58:39;41.83;;;26.15;;
33413;SDS011;60055;41.884;12.534;2023-02-15T08:01:20;47.45;;;25.75;;
33413;SDS011;60055;41.884;12.534;2023-02-15T08:03:48;54.58;;;26.75;;
33413;SDS011;60055;41.884;12.534;2023-02-15T08:06:14;44.58;;;25.38;;
33413;SDS011;60055;41.884;12.534;2023-02-15T08:08:40;49.80;;;25.65;;
33413;SDS011;60055;41.884;12.534;2023-02-15T08:11:21;46.10;;;25.08;;
33413;SDS011;60055;41.884;12.534;2023-02-15T08:18:54;44.30;;;25.42;;
33413;SDS011;60055;41.884;12.534;2023-02-15T08:21:21;39.03;;;24.42;;
33413;SDS011;60055;41.884;12.534;2023-02-15T08:23:47;45.92;;;25.55;;
33413;SDS011;60055;41.884;12.534;2023-02-15T08:26:12;41.50;;;23.90;;
33413;SDS011;60055;41.884;12.534;2023-02-15T08:28:39;43.25;;;25.88;;
33413;SDS011;60055;41.884;12.534;2023-02-15T08:31:09;43.22;;;25.60;;
33413;SDS011;60055;41.884;12.534;2023-02-15T08:33:41;40.95;;;25.00;;
33413;SDS011;60055;41.884;12.534;2023-02-15T08:36:09;49.70;;;25.27;;
33413;SDS011;60055;41.884;12.534;2023-02-15T08:38:40;36.45;;;23.10;;
33413;SDS011;60055;41.884;12.534;2023-02-15T08:43:46;42.55;;;25.25;;
33413;SDS011;60055;41.884;12.534;2023-02-15T08:46:14;45.05;;;24.75;;
33413;SDS011;60055;41.884;12.534;2023-02-15T08:48:41;40.42;;;22.98;;
33413;SDS011;60055;41.884;12.534;2023-02-15T08:51:09;43.58;;;23.08;;
33413;SDS011;60055;41.884;12.534;2023-02-15T08:53:38;39.88;;;23.40;;
33413;SDS011;60055;41.884;12.534;2023-02-15T08:56:04;42.00;;;23.75;;
33413;SDS011;60055;41.884;12.534;2023-02-15T08:58:31;39.20;;;22.48;;
33413;SDS011;60055;41.884;12.534;2023-02-15T09:00:57;36.00;;;22.00;;
33413;SDS011;60055;41.884;12.534;2023-02-15T09:03:24;43.45;;;22.95;;
33413;SDS011;60055;41.884;12.534;2023-02-15T09:05:49;40.03;;;23.23;;
33413;SDS011;60055;41.884;12.534;2023-02-15T09:08:15;40.28;;;22.88;;
33413;SDS011;60055;41.884;12.534;2023-02-15T09:10:41;44.85;;;24.27;;
33413;SDS011;60055;41.884;12.534;2023-02-15T09:13:06;38.15;;;23.60;;
33413;SDS011;60055;41.884;12.534;2023-02-15T09:15:32;37.70;;;23.38;;
33413;SDS011;60055;41.884;12.534;2023-02-15T09:17:58;36.20;;;21.88;;
33413;SDS011;60055;41.884;12.534;2023-02-15T09:20:26;38.95;;;22.40;;
33413;SDS011;60055;41.884;12.534;2023-02-15T09:22:53;39.45;;;23.35;;
33413;SDS011;60055;41.884;12.534;2023-02-15T09:25:19;39.38;;;23.13;;
33413;SDS011;60055;41.884;12.534;2023-02-15T09:27:45;36.47;;;22.70;;
33413;SDS011;60055;41.884;12.534;2023-02-15T09:30:11;39.00;;;22.35;;
33413;SDS011;60055;41.884;12.534;2023-02-15T09:32:37;41.65;;;23.05;;
33413;SDS011;60055;41.884;12.534;2023-02-15T09:35:03;41.13;;;22.80;;
33413;SDS011;60055;41.884;12.534;2023-02-15T09:37:29;41.83;;;24.02;;
33413;SDS011;60055;41.884;12.534;2023-02-15T09:39:56;43.70;;;22.88;;
33413;SDS011;60055;41.884;12.534;2023-02-15T09:45:25;41.78;;;23.92;;
33413;SDS011;60055;41.884;12.534;2023-02-15T09:48:03;42.03;;;24.35;;
33413;SDS011;60055;41.884;12.534;2023-02-15T09:50:51;46.83;;;24.88;;
33413;SDS011;60055;41.884;12.534;2023-02-15T09:56:45;40.38;;;23.75;;
33413;SDS011;60055;41.884;12.534;2023-02-15T10:02:48;42.28;;;24.77;;
33413;SDS011;60055;41.884;12.534;2023-02-15T10:05:23;38.67;;;22.75;;
33413;SDS011;60055;41.884;12.534;2023-02-15T10:11:10;37.72;;;23.13;;
33413;SDS011;60055;41.884;12.534;2023-02-15T10:20:25;41.25;;;23.63;;
33413;SDS011;60055;41.884;12.534;2023-02-15T10:27:55;41.38;;;22.88;;
33413;SDS011;60055;41.884;12.534;2023-02-15T10:30:39;38.92;;;22.23;;
33413;SDS011;60055;41.884;12.534;2023-02-15T10:38:49;37.55;;;23.33;;
33413;SDS011;60055;41.884;12.534;2023-02-15T10:44:29;38.33;;;22.23;;
33413;SDS011;60055;41.884;12.534;2023-02-15T10:47:35;42.45;;;23.50;;
33413;SDS011;60055;41.884;12.534;2023-02-15T11:04:14;44.25;;;23.52;;
33413;SDS011;60055;41.884;12.534;2023-02-15T11:06:48;39.05;;;23.20;;
33413;SDS011;60055;41.884;12.534;2023-02-15T11:09:19;45.72;;;21.98;;
33413;SDS011;60055;41.884;12.534;2023-02-15T11:11:50;37.30;;;22.73;;
33413;SDS011;60055;41.884;12.534;2023-02-15T11:16:53;36.00;;;22.10;;
33413;SDS011;60055;41.884;12.534;2023-02-15T11:19:26;37.75;;;20.88;;
33413;SDS011;60055;41.884;12.534;2023-02-15T11:22:00;43.53;;;24.10;;
33413;SDS011;60055;41.884;12.534;2023-02-15T11:24:29;44.03;;;24.95;;
33413;SDS011;60055;41.884;12.534;2023-02-15T11:29:30;43.42;;;23.92;;
33413;SDS011;60055;41.884;12.534;2023-02-15T11:42:49;42.22;;;24.20;;
33413;SDS011;60055;41.884;12.534;2023-02-15T11:45:31;55.20;;;24.63;;
33413;SDS011;60055;41.884;12.534;2023-02-15T11:48:04;44.08;;;26.30;;
33413;SDS011;60055;41.884;12.534;2023-02-15T11:50:35;39.83;;;25.67;;
33413;SDS011;60055;41.884;12.534;2023-02-15T11:53:03;40.20;;;24.05;;
33413;SDS011;60055;41.884;12.534;2023-02-15T11:55:31;44.17;;;25.25;;
33413;SDS011;60055;41.884;12.534;2023-02-15T11:58:04;43.10;;;22.77;;
33413;SDS011;60055;41.884;12.534;2023-02-15T12:00:55;39.10;;;24.05;;
33413;SDS011;60055;41.884;12.534;2023-02-15T12:06:01;42.63;;;22.92;;
33413;SDS011;60055;41.884;12.534;2023-02-15T12:08:34;40.28;;;22.02;;
33413;SDS011;60055;41.884;12.534;2023-02-15T12:11:15;40.72;;;21.35;;
33413;SDS011;60055;41.884;12.534;2023-02-15T12:16:24;40.42;;;21.55;;
33413;SDS011;60055;41.884;12.534;2023-02-15T12:18:52;41.60;;;20.85;;
33413;SDS011;60055;41.884;12.534;2023-02-15T12:21:30;36.53;;;20.90;;
33413;SDS011;60055;41.884;12.534;2023-02-15T12:24:10;42.40;;;21.42;;
33413;SDS011;60055;41.884;12.534;2023-02-15T12:26:55;39.60;;;20.65;;
33413;SDS011;60055;41.884;12.534;2023-02-15T12:29:28;39.95;;;21.40;;
33413;SDS011;60055;41.884;12.534;2023-02-15T12:31:59;41.95;;;22.00;;
33413;SDS011;60055;41.884;12.534;2023-02-15T12:36:53;40.25;;;21.65;;
33413;SDS011;60055;41.884;12.534;2023-02-15T12:39:27;37.55;;;21.23;;
33413;SDS011;60055;41.884;12.534;2023-02-15T12:44:20;39.05;;;21.65;;
33413;SDS011;60055;41.884;12.534;2023-02-15T12:49:41;38.70;;;20.65;;
33413;SDS011;60055;41.884;12.534;2023-02-15T12:54:45;40.97;;;21.33;;
33413;SDS011;60055;41.884;12.534;2023-02-15T12:57:29;35.38;;;20.65;;
33413;SDS011;60055;41.884;12.534;2023-02-15T13:02:35;37.30;;;20.23;;
33413;SDS011;60055;41.884;12.534;2023-02-15T13:07:52;42.63;;;20.70;;
33413;SDS011;60055;41.884;12.534;2023-02-15T13:10:28;45.22;;;21.95;;
33413;SDS011;60055;41.884;12.534;2023-02-15T13:12:56;42.30;;;22.30;;
33413;SDS011;60055;41.884;12.534;2023-02-15T13:15:27;37.58;;;19.77;;
33413;SDS011;60055;41.884;12.534;2023-02-15T13:18:16;39.85;;;20.25;;
33413;SDS011;60055;41.884;12.534;2023-02-15T13:20:44;38.28;;;19.50;;
33413;SDS011;60055;41.884;12.534;2023-02-15T13:23:21;43.13;;;21.45;;
33413;SDS011;60055;41.884;12.534;2023-02-15T13:25:49;42.30;;;20.85;;
33413;SDS011;60055;41.884;12.534;2023-02-15T13:28:17;36.95;;;20.33;;
33413;SDS011;60055;41.884;12.534;2023-02-15T13:30:47;36.75;;;20.27;;
33413;SDS011;60055;41.884;12.534;2023-02-15T13:33:20;34.58;;;18.42;;
33413;SDS011;60055;41.884;12.534;2023-02-15T13:35:56;35.15;;;19.90;;
33413;SDS011;60055;41.884;12.534;2023-02-15T13:41:46;41.47;;;20.20;;
33413;SDS011;60055;41.884;12.534;2023-02-15T13:52:24;37.67;;;20.08;;
33413;SDS011;60055;41.884;12.534;2023-02-15T14:03:35;40.55;;;20.25;;
33413;SDS011;60055;41.884;12.534;2023-02-15T14:11:58;40.78;;;19.67;;
33413;SDS011;60055;41.884;12.534;2023-02-15T14:22:44;36.65;;;19.85;;
33413;SDS011;60055;41.884;12.534;2023-02-15T14:25:20;41.83;;;21.73;;
33413;SDS011;60055;41.884;12.534;2023-02-15T14:27:59;36.83;;;19.67;;
33413;SDS011;60055;41.884;12.534;2023-02-15T14:30:44;35.78;;;19.25;;
33413;SDS011;60055;41.884;12.534;2023-02-15T14:33:25;39.55;;;19.70;;
33413;SDS011;60055;41.884;12.534;2023-02-15T14:35:58;38.28;;;19.77;;
33413;SDS011;60055;41.884;12.534;2023-02-15T14:41:36;34.67;;;19.80;;
33413;SDS011;60055;41.884;12.534;2023-02-15T14:44:13;36.33;;;19.23;;
33413;SDS011;60055;41.884;12.534;2023-02-15T14:46:50;36.00;;;19.83;;
33413;SDS011;60055;41.884;12.534;2023-02-15T14:49:25;35.70;;;18.77;;
33413;SDS011;60055;41.884;12.534;2023-02-15T14:51:55;32.35;;;18.98;;
33413;SDS011;60055;41.884;12.534;2023-02-15T14:59:25;36.13;;;21.83;;
33413;SDS011;60055;41.884;12.534;2023-02-15T15:07:14;33.35;;;20.33;;
33413;SDS011;60055;41.884;12.534;2023-02-15T15:09:43;36.78;;;20.10;;
33413;SDS011;60055;41.884;12.534;2023-02-15T15:14:49;34.65;;;18.38;;
33413;SDS011;60055;41.884;12.534;2023-02-15T15:20:12;33.47;;;17.05;;
33413;SDS011;60055;41.884;12.534;2023-02-15T15:22:41;33.83;;;18.27;;
33413;SDS011;60055;41.884;12.534;2023-02-15T15:25:12;31.17;;;17.05;;
33413;SDS011;60055;41.884;12.534;2023-02-15T15:27:56;33.53;;;17.42;;
33413;SDS011;60055;41.884;12.534;2023-02-15T15:49:20;30.95;;;17.35;;
33413;SDS011;60055;41.884;12.534;2023-02-15T15:51:48;30.27;;;16.27;;
33413;SDS011;60055;41.884;12.534;2023-02-15T15:54:23;30.10;;;16.83;;
33413;SDS011;60055;41.884;12.534;2023-02-15T15:56:55;31.48;;;17.73;;
33413;SDS011;60055;41.884;12.534;2023-02-15T15:59:33;29.90;;;16.25;;
33413;SDS011;60055;41.884;12.534;2023-02-15T16:02:06;25.92;;;17.17;;
33413;SDS011;60055;41.884;12.534;2023-02-15T16:04:35;31.48;;;16.42;;
33413;SDS011;60055;41.884;12.534;2023-02-15T16:07:23;30.25;;;17.27;;
33413;SDS011;60055;41.884;12.534;2023-02-15T16:12:21;31.05;;;17.75;;
33413;SDS011;60055;41.884;12.534;2023-02-15T16:14:48;28.13;;;17.05;;
33413;SDS011;60055;41.884;12.534;2023-02-15T16:17:20;31.25;;;17.23;;
33413;SDS011;60055;41.884;12.534;2023-02-15T16:19:51;30.83;;;19.35;;
33413;SDS011;60055;41.884;12.534;2023-02-15T16:22:23;30.00;;;17.98;;
33413;SDS011;60055;41.884;12.534;2023-02-15T16:27:36;31.02;;;18.95;;
33413;SDS011;60055;41.884;12.534;2023-02-15T16:30:23;36.75;;;18.67;;
33413;SDS011;60055;41.884;12.534;2023-02-15T16:35:52;36.78;;;18.63;;
33413;SDS011;60055;41.884;12.534;2023-02-15T16:41:12;32.45;;;19.50;;
33413;SDS011;60055;41.884;12.534;2023-02-15T16:43:46;37.22;;;20.13;;
33413;SDS011;60055;41.884;12.534;2023-02-15T16:46:27;39.63;;;20.65;;
33413;SDS011;60055;41.884;12.534;2023-02-15T16:49:20;38.65;;;19.88;;
33413;SDS011;60055;41.884;12.534;2023-02-15T16:52:02;36.20;;;18.58;;
33413;SDS011;60055;41.884;12.534;2023-02-15T16:54:31;38.28;;;21.17;;
33413;SDS011;60055;41.884;12.534;2023-02-15T16:56:58;33.72;;;22.40;;
33413;SDS011;60055;41.884;12.534;2023-02-15T17:02:52;37.47;;;22.13;;
33413;SDS011;60055;41.884;12.534;2023-02-15T17:07:42;35.05;;;20.67;;
33413;SDS011;60055;41.884;12.534;2023-02-15T17:10:34;32.90;;;20.75;;
33413;SDS011;60055;41.884;12.534;2023-02-15T17:13:09;35.85;;;23.95;;
33413;SDS011;60055;41.884;12.534;2023-02-15T17:15:40;31.75;;;20.77;;
33413;SDS011;60055;41.884;12.534;2023-02-15T17:20:45;35.65;;;23.05;;
33413;SDS011;60055;41.884;12.534;2023-02-15T17:25:53;38.03;;;23.17;;
33413;SDS011;60055;41.884;12.534;2023-02-15T17:28:20;37.42;;;23.27;;
33413;SDS011;60055;41.884;12.534;2023-02-15T17:30:50;35.75;;;23.67;;
33413;SDS011;60055;41.884;12.534;2023-02-15T17:33:24;42.15;;;24.02;;
33413;SDS011;60055;41.884;12.534;2023-02-15T17:36:09;39.80;;;23.38;;
33413;SDS011;60055;41.884;12.534;2023-02-15T17:38:40;37.35;;;22.95;;
33413;SDS011;60055;41.884;12.534;2023-02-15T17:41:21;40.22;;;23.80;;
33413;SDS011;60055;41.884;12.534;2023-02-15T17:43:47;38.30;;;24.58;;
33413;SDS011;60055;41.884;12.534;2023-02-15T17:46:14;40.58;;;23.98;;
33413;SDS011;60055;41.884;12.534;2023-02-15T17:48:45;39.78;;;25.48;;
33413;SDS011;60055;41.884;12.534;2023-02-15T17:51:12;36.42;;;23.90;;
33413;SDS011;60055;41.884;12.534;2023-02-15T17:53:40;39.67;;;26.92;;
33413;SDS011;60055;41.884;12.534;2023-02-15T17:56:06;40.33;;;26.38;;
33413;SDS011;60055;41.884;12.534;2023-02-15T17:58:35;43.70;;;26.17;;
33413;SDS011;60055;41.884;12.534;2023-02-15T18:01:03;44.22;;;26.73;;
33413;SDS011;60055;41.884;12.534;2023-02-15T18:03:50;41.15;;;24.85;;